This is the latest recevied weather packets stored in our database for station/object AE5TC. If no packets are shown the sender has not sent any weather packets the latest 10 day(s).
| Time | Temp. | Humidity | Pressure | Rain* | Wind** | Luminosity | Snow |
|---|---|---|---|---|---|---|---|
| 1777740145 | 15° C | 99% | 1011.5 hPa | 0 mm | - | 146 W/m² | - |
| 1777739840 | 15° C | 99% | 1011.4 hPa | 0 mm | - | 149 W/m² | - |
| 1777739537 | 15° C | 99% | 1011.3 hPa | 0 mm | - | 156 W/m² | - |
| 1777739234 | 15.56° C | 99% | 1011.4 hPa | 0 mm | - | 139 W/m² | - |
| 1777738931 | 15.56° C | 99% | 1010.9 hPa | 0 mm | - | 204 W/m² | - |
| 1777738628 | 15.56° C | 99% | 1010.9 hPa | 0 mm | - | 172 W/m² | - |
| 1777738324 | 15.56° C | 99% | 1010.8 hPa | 0 mm | - | 134 W/m² | - |
| 1777738023 | 15.56° C | 99% | 1010.7 hPa | 0 mm | - | 209 W/m² | - |
| 1777737722 | 15.56° C | 99% | 1010.6 hPa | 0 mm | - | 192 W/m² | - |
| 1777737420 | 15.56° C | 99% | 1010.6 hPa | 0 mm | - | 129 W/m² | - |
| 1777737116 | 15.56° C | 99% | 1010.8 hPa | 0 mm | - | 141 W/m² | - |
| 1777736811 | 15.56° C | 99% | 1010.5 hPa | 0 mm | - | 146 W/m² | - |
| 1777736184 | 15.56° C | 99% | 1010.7 hPa | 0 mm | - | 93 W/m² | - |
| 1777735881 | 16.11° C | 99% | 1010.8 hPa | 0 mm | - | 79 W/m² | - |
| 1777735578 | 16.11° C | 99% | 1010.7 hPa | 0 mm | - | 83 W/m² | - |
| 1777735275 | 15.56° C | 99% | 1010.8 hPa | 0 mm | - | 64 W/m² | - |
| 1777734972 | 15.56° C | 99% | 1010.4 hPa | 0 mm | - | 91 W/m² | - |
| 1777734670 | 16.11° C | 99% | 1010.4 hPa | 0 mm | - | 50 W/m² | - |
| 1777734367 | 16.11° C | 99% | 1010.5 hPa | 0 mm | - | 57 W/m² | - |
| 1777734063 | 16.11° C | 99% | 1010.4 hPa | 0 mm | - | 38 W/m² | - |
| 1777733760 | 16.11° C | 99% | 1010.1 hPa | 0 mm | - | 100 W/m² | - |
| 1777733457 | 16.11° C | 99% | 1009.7 hPa | 0 mm | - | 137 W/m² | - |
| 1777733152 | 16.11° C | 99% | 1009.8 hPa | 0 mm | - | 77 W/m² | - |
| 1777732849 | 15.56° C | 99% | 1009.8 hPa | 0 mm | - | 61 W/m² | - |
| 1777732546 | 15.56° C | 99% | 1009.8 hPa | 0 mm | - | 54 W/m² | - |
* Rain latest hour (hover to see other rain measurements)
** Current wind speed in m/s (hover to see current wind gust speed)